Time;durP1;ratioP1;P1;durP2;ratioP2;P2;SDS_P1;SDS_P2;PMS_P1;PMS_P2;Temp;Humidity;BMP_temperature;BMP_pressure;BME280_temperature;BME280_humidity;BME280_pressure;Samples;Min_cycle;Max_cycle;Signal;HPM_P1;HPM_P2
2022/09/11 00:00:30;;;;;;;3.88;3.47;;;23.20;63.20;;;;;;5012725;28;20115;-17
2022/09/11 00:02:56;;;;;;;3.28;2.97;;;23.20;63.00;;;;;;5001471;28;20057;-17
2022/09/11 00:05:22;;;;;;;4.40;3.47;;;23.20;63.10;;;;;;5001045;28;20050;-17
2022/09/11 00:07:47;;;;;;;3.55;3.25;;;23.20;63.10;;;;;;5002211;28;20070;-18
2022/09/11 00:10:13;;;;;;;3.85;3.38;;;23.20;63.10;;;;;;5000645;28;21414;-17
2022/09/11 00:12:38;;;;;;;5.57;3.30;;;23.20;63.10;;;;;;4995934;28;20049;-17
2022/09/11 00:15:04;;;;;;;3.95;3.17;;;23.20;63.10;;;;;;4999249;28;20064;-18
2022/09/11 00:17:30;;;;;;;3.17;2.88;;;23.20;63.00;;;;;;5000690;28;20058;-17
2022/09/11 00:19:56;;;;;;;3.40;3.08;;;23.20;63.10;;;;;;5002660;28;20213;-27
2022/09/11 00:22:21;;;;;;;3.40;3.10;;;23.10;63.20;;;;;;4997525;28;20050;-17
2022/09/11 00:24:47;;;;;;;3.30;3.00;;;23.10;63.20;;;;;;4999795;28;20045;-18
2022/09/11 00:27:12;;;;;;;3.75;3.10;;;23.10;63.20;;;;;;4993965;28;20497;-17
2022/09/11 00:29:38;;;;;;;3.30;3.03;;;23.10;63.20;;;;;;4999532;28;20054;-17
2022/09/11 00:32:04;;;;;;;3.28;3.03;;;23.10;63.20;;;;;;5008495;28;20076;-18
2022/09/11 00:34:29;;;;;;;3.15;2.95;;;23.10;63.20;;;;;;4996370;28;20137;-17
2022/09/11 00:36:56;;;;;;;3.03;2.83;;;23.10;63.20;;;;;;4999457;28;20052;-18
2022/09/11 00:39:22;;;;;;;3.25;2.97;;;23.10;63.10;;;;;;4995687;28;20053;-17
2022/09/11 00:41:48;;;;;;;3.60;3.40;;;23.10;63.20;;;;;;4998692;28;20046;-17
2022/09/11 00:44:16;;;;;;;2.95;2.75;;;23.10;64.00;;;;;;4996800;28;20061;-17
2022/09/11 00:46:44;;;;;;;3.20;3.00;;;23.10;63.20;;;;;;5001474;28;20041;-17
2022/09/11 00:49:15;;;;;;;3.08;2.63;;;23.10;63.20;;;;;;4997680;28;20033;-17
2022/09/11 00:51:41;;;;;;;2.78;2.55;;;23.10;63.20;;;;;;4996938;28;20065;-18
2022/09/11 00:54:08;;;;;;;2.47;2.38;;;23.10;63.30;;;;;;5000206;28;20512;-17
2022/09/11 00:56:34;;;;;;;3.67;2.53;;;23.10;63.30;;;;;;4997623;28;20034;-18
2022/09/11 00:59:00;;;;;;;2.55;2.40;;;23.10;63.10;;;;;;4996509;28;20046;-17
2022/09/11 01:01:25;;;;;;;2.78;2.45;;;23.10;63.30;;;;;;4998020;28;20513;-27
2022/09/11 01:03:51;;;;;;;2.72;2.53;;;23.10;63.20;;;;;;5000767;28;20042;-24
2022/09/11 01:06:17;;;;;;;2.40;2.30;;;23.10;63.20;;;;;;4993155;28;20057;-17
2022/09/11 01:08:42;;;;;;;2.22;2.13;;;23.10;63.20;;;;;;5000716;28;20053;-17
2022/09/11 01:11:12;;;;;;;2.97;2.75;;;23.00;64.10;;;;;;4998949;28;20440;-17
2022/09/11 01:13:46;;;;;;;2.40;2.25;;;23.00;63.20;;;;;;4998894;28;20041;-17
2022/09/11 01:16:17;;;;;;;2.65;2.28;;;23.10;63.20;;;;;;4980027;28;20110;-22
2022/09/11 01:18:52;;;;;;;2.80;2.60;;;23.00;63.30;;;;;;4998467;28;20042;-17
2022/09/11 01:21:45;;;;;;;2.22;2.13;;;23.00;63.30;;;;;;4995640;28;20051;-18
2022/09/11 01:24:42;;;;;;;2.40;2.20;;;23.00;63.30;;;;;;4998955;28;20591;-17
2022/09/11 01:27:32;;;;;;;2.40;2.20;;;23.00;63.40;;;;;;5010832;28;20094;-18
2022/09/11 01:30:03;;;;;;;2.25;2.05;;;23.00;63.30;;;;;;5002298;28;20038;-17
2022/09/11 01:32:45;;;;;;;2.60;2.40;;;23.00;63.30;;;;;;4997089;28;20133;-18
2022/09/11 01:35:48;;;;;;;2.50;2.30;;;23.00;63.30;;;;;;4993420;28;20065;-18
2022/09/11 01:38:24;;;;;;;2.05;1.95;;;23.00;63.60;;;;;;4993499;28;20141;-17
2022/09/11 01:41:07;;;;;;;2.30;2.10;;;23.00;63.50;;;;;;4999205;28;20045;-17
2022/09/11 01:43:39;;;;;;;2.63;2.25;;;23.00;63.60;;;;;;4997288;28;20128;-17
2022/09/11 01:46:06;;;;;;;2.25;2.15;;;23.00;63.50;;;;;;4980715;28;20520;-17
2022/09/11 01:48:43;;;;;;;2.28;2.17;;;23.00;63.40;;;;;;4994990;28;20058;-17
2022/09/11 01:51:15;;;;;;;2.90;2.10;;;23.00;63.40;;;;;;4992662;28;20129;-18
2022/09/11 01:53:41;;;;;;;2.10;1.90;;;23.00;63.40;;;;;;4995565;28;20057;-18
2022/09/11 01:56:12;;;;;;;2.50;2.00;;;23.00;63.80;;;;;;4992836;28;20038;-17
2022/09/11 01:58:37;;;;;;;2.20;2.10;;;23.00;63.70;;;;;;4996179;28;20500;-17
2022/09/11 02:01:06;;;;;;;2.17;2.08;;;23.00;63.60;;;;;;4995901;28;20049;-17
2022/09/11 02:03:40;;;;;;;2.00;1.90;;;23.00;63.40;;;;;;4995217;28;20042;-17
2022/09/11 02:06:13;;;;;;;2.15;2.05;;;23.00;63.60;;;;;;4993249;28;20054;-17
2022/09/11 02:08:53;;;;;;;2.03;1.92;;;22.90;63.70;;;;;;5000117;28;20092;-17
2022/09/11 02:11:19;;;;;;;2.15;2.03;;;22.90;63.60;;;;;;4997709;28;20137;-18
2022/09/11 02:13:48;;;;;;;2.05;1.95;;;22.90;63.50;;;;;;4999717;28;20068;-24
2022/09/11 02:16:22;;;;;;;2.25;1.98;;;22.90;63.50;;;;;;4999522;28;20034;-18
2022/09/11 02:19:00;;;;;;;1.92;1.83;;;22.90;63.40;;;;;;4992345;28;20394;-17
2022/09/11 02:21:26;;;;;;;1.90;1.80;;;22.90;63.50;;;;;;4993719;28;20167;-17
2022/09/11 02:23:54;;;;;;;1.92;1.83;;;22.90;63.70;;;;;;4977927;28;20091;-22
2022/09/11 02:26:21;;;;;;;1.98;1.88;;;22.90;63.70;;;;;;4998930;28;20034;-20
2022/09/11 02:28:47;;;;;;;2.50;1.77;;;22.90;63.80;;;;;;4994690;28;20050;-18
2022/09/11 02:31:13;;;;;;;2.15;1.60;;;22.90;63.70;;;;;;4993785;28;20042;-17
2022/09/11 02:33:38;;;;;;;1.65;1.55;;;22.90;63.60;;;;;;4996365;28;20046;-17
2022/09/11 02:36:34;;;;;;;1.85;1.60;;;22.90;63.70;;;;;;4994755;28;20160;-21
2022/09/11 02:39:06;;;;;;;1.92;1.83;;;22.90;63.50;;;;;;4997153;28;20042;-17
2022/09/11 02:41:50;;;;;;;2.03;1.90;;;22.90;63.40;;;;;;4998167;28;20047;-22
2022/09/11 02:44:40;;;;;;;1.88;1.77;;;22.90;63.40;;;;;;4982103;28;20055;-17
2022/09/11 02:47:33;;;;;;;1.65;1.55;;;22.90;63.40;;;;;;5001328;28;20290;-17
2022/09/11 02:50:51;;;;;;;1.80;1.70;;;22.90;63.70;;;;;;4994254;28;20073;-17
2022/09/11 02:53:38;;;;;;;1.73;1.42;;;22.90;63.40;;;;;;4988029;28;20046;-17
2022/09/11 02:56:22;;;;;;;1.70;1.50;;;22.90;63.50;;;;;;4994943;28;20046;-17
2022/09/11 02:58:55;;;;;;;1.50;1.40;;;22.80;63.60;;;;;;5000129;28;20532;-17
2022/09/11 03:01:21;;;;;;;1.70;1.60;;;22.80;63.50;;;;;;4995453;28;20167;-20
2022/09/11 03:03:47;;;;;;;1.63;1.50;;;22.80;63.60;;;;;;5001318;28;20038;-18
2022/09/11 03:06:20;;;;;;;1.30;1.30;;;22.90;63.40;;;;;;5002954;28;20447;-17
2022/09/11 03:08:45;;;;;;;1.92;1.63;;;22.80;63.40;;;;;;5011801;28;20184;-17
2022/09/11 03:11:14;;;;;;;1.95;1.70;;;22.80;63.40;;;;;;5002749;28;20113;-21
2022/09/11 03:13:39;;;;;;;2.28;1.50;;;22.80;63.40;;;;;;4998704;28;20393;-17
2022/09/11 03:16:05;;;;;;;1.67;1.58;;;22.80;63.50;;;;;;5002215;28;20117;-19
2022/09/11 03:18:32;;;;;;;1.40;1.30;;;22.80;63.20;;;;;;5000551;28;20094;-18
2022/09/11 03:20:57;;;;;;;1.50;1.40;;;22.80;63.50;;;;;;5001075;28;20034;-18
2022/09/11 03:23:23;;;;;;;1.70;1.60;;;22.80;63.40;;;;;;5004053;28;20046;-17
2022/09/11 03:25:49;;;;;;;2.38;1.85;;;22.80;63.40;;;;;;5005860;28;20026;-17
2022/09/11 03:28:15;;;;;;;1.52;1.42;;;22.80;63.50;;;;;;4999464;28;20034;-27
2022/09/11 03:30:41;;;;;;;1.60;1.50;;;22.70;63.30;;;;;;5001356;28;20045;-18
2022/09/11 03:33:07;;;;;;;1.90;1.80;;;22.70;63.60;;;;;;5005233;28;20057;-18
2022/09/11 03:35:33;;;;;;;1.45;1.40;;;22.80;63.50;;;;;;5001763;28;20135;-17
2022/09/11 03:37:59;;;;;;;1.50;1.40;;;22.80;63.20;;;;;;5003492;28;20091;-17
2022/09/11 03:40:24;;;;;;;1.60;1.50;;;22.80;63.30;;;;;;5008672;28;20057;-17
2022/09/11 03:42:50;;;;;;;1.40;1.40;;;22.70;63.50;;;;;;4999514;28;20034;-17
2022/09/11 03:45:16;;;;;;;1.70;1.60;;;22.70;63.50;;;;;;5002312;28;20036;-18
2022/09/11 03:47:41;;;;;;;1.40;1.30;;;22.70;64.50;;;;;;4993545;28;20121;-17
2022/09/11 03:50:08;;;;;;;1.20;1.20;;;22.70;63.70;;;;;;4998021;28;20062;-23
2022/09/11 03:52:34;;;;;;;2.05;1.50;;;22.80;63.90;;;;;;4995952;28;20137;-17
2022/09/11 03:55:00;;;;;;;1.50;1.40;;;22.90;63.70;;;;;;4995809;28;20058;-17
2022/09/11 03:57:26;;;;;;;1.35;1.25;;;22.80;63.70;;;;;;4995184;28;20057;-19
2022/09/11 03:59:54;;;;;;;1.50;1.40;;;22.90;63.50;;;;;;4999344;28;20054;-18
2022/09/11 04:02:22;;;;;;;1.08;1.08;;;22.90;63.70;;;;;;4995431;28;20042;-17
2022/09/11 04:04:47;;;;;;;1.40;1.30;;;22.80;63.60;;;;;;4994777;28;20138;-19
2022/09/11 04:07:13;;;;;;;1.42;1.33;;;22.90;63.70;;;;;;4999621;28;20479;-23
2022/09/11 04:09:38;;;;;;;2.30;1.30;;;22.90;64.40;;;;;;4998690;28;20102;-17
2022/09/11 04:12:04;;;;;;;5.25;1.40;;;22.90;63.60;;;;;;4994819;28;20073;-17
2022/09/11 04:14:29;;;;;;;1.55;1.20;;;22.90;63.40;;;;;;4993424;28;20590;-17
2022/09/11 04:16:55;;;;;;;2.15;1.40;;;22.90;63.50;;;;;;4999691;28;20034;-17
2022/09/11 04:19:22;;;;;;;1.60;1.50;;;22.90;63.40;;;;;;5003387;28;20042;-17
2022/09/11 04:21:48;;;;;;;1.17;1.08;;;22.90;63.60;;;;;;4997999;28;20531;-17
2022/09/11 04:24:14;;;;;;;1.17;1.10;;;22.90;63.60;;;;;;5000062;28;20038;-18
2022/09/11 04:26:39;;;;;;;1.30;1.20;;;22.90;63.50;;;;;;4995555;28;20061;-17
2022/09/11 04:29:05;;;;;;;0.80;0.80;;;22.80;63.60;;;;;;4999588;28;20046;-17
2022/09/11 04:31:30;;;;;;;1.30;1.20;;;22.80;63.20;;;;;;4992690;28;20068;-18
2022/09/11 04:33:56;;;;;;;1.13;1.10;;;22.80;63.30;;;;;;4996157;28;20320;-17
2022/09/11 04:36:23;;;;;;;1.10;1.00;;;22.80;63.60;;;;;;5002266;28;20501;-18
2022/09/11 04:38:53;;;;;;;1.20;1.10;;;22.80;63.60;;;;;;4996970;28;20519;-18
2022/09/11 04:41:19;;;;;;;0.85;0.85;;;22.80;63.50;;;;;;5002404;28;20257;-17
2022/09/11 04:43:45;;;;;;;1.17;1.08;;;22.80;63.80;;;;;;5000825;28;20560;-17
2022/09/11 04:46:12;;;;;;;0.90;0.90;;;22.80;63.50;;;;;;5001395;28;20065;-17
2022/09/11 04:48:47;;;;;;;1.08;1.00;;;22.80;63.40;;;;;;5000703;28;20049;-22
2022/09/11 04:51:37;;;;;;;0.90;0.90;;;22.70;63.30;;;;;;5001821;28;20062;-17
2022/09/11 04:54:02;;;;;;;0.73;0.73;;;22.70;63.50;;;;;;5006116;28;20092;-17
2022/09/11 04:56:29;;;;;;;1.15;0.98;;;22.70;63.30;;;;;;4998692;28;20485;-18
2022/09/11 04:59:00;;;;;;;2.22;1.02;;;22.70;63.60;;;;;;4997356;28;20049;-18
2022/09/11 05:01:26;;;;;;;1.20;1.10;;;22.70;63.90;;;;;;4999730;28;20046;-20
2022/09/11 05:03:52;;;;;;;0.80;0.75;;;22.70;63.70;;;;;;4999579;28;21164;-18
2022/09/11 05:06:18;;;;;;;1.17;1.08;;;22.70;63.30;;;;;;4995008;28;20459;-17
2022/09/11 05:08:44;;;;;;;0.70;0.70;;;22.70;63.60;;;;;;5000681;28;20093;-17
2022/09/11 05:11:15;;;;;;;1.10;1.00;;;22.70;63.80;;;;;;4998200;28;20050;-17
2022/09/11 05:13:41;;;;;;;1.38;0.80;;;22.70;64.30;;;;;;5003811;28;20069;-17
2022/09/11 05:16:09;;;;;;;0.93;0.90;;;22.70;63.80;;;;;;4997301;28;20500;-17
2022/09/11 05:18:35;;;;;;;1.13;1.05;;;22.70;63.40;;;;;;4996107;28;20038;-18
2022/09/11 05:21:02;;;;;;;0.75;0.75;;;22.70;63.70;;;;;;4994892;28;20505;-17
2022/09/11 05:23:28;;;;;;;0.70;0.70;;;22.70;63.60;;;;;;4996305;28;20070;-18
2022/09/11 05:26:04;;;;;;;1.05;1.00;;;22.70;63.50;;;;;;4996941;28;20049;-18
2022/09/11 05:28:29;;;;;;;2.45;1.00;;;22.70;63.80;;;;;;4998400;28;20030;-17
2022/09/11 05:30:56;;;;;;;1.73;0.65;;;22.70;63.40;;;;;;5001452;28;20046;-18
2022/09/11 05:33:24;;;;;;;1.00;1.00;;;22.70;63.50;;;;;;4994534;28;20585;-17
2022/09/11 05:35:53;;;;;;;1.13;0.98;;;22.70;63.40;;;;;;4998569;28;20054;-17
2022/09/11 05:38:19;;;;;;;1.35;0.80;;;22.70;63.40;;;;;;4999219;28;20030;-17
2022/09/11 05:40:47;;;;;;;0.90;0.90;;;22.70;63.60;;;;;;4996045;28;20572;-17
2022/09/11 05:43:14;;;;;;;1.00;1.00;;;22.70;63.60;;;;;;4997306;28;20065;-17
2022/09/11 05:45:44;;;;;;;1.27;1.17;;;22.70;63.70;;;;;;4999413;28;20516;-18
2022/09/11 05:48:10;;;;;;;1.00;1.00;;;22.70;63.40;;;;;;5000281;28;20034;-18
2022/09/11 05:50:36;;;;;;;0.70;0.70;;;22.70;63.70;;;;;;4998386;28;20047;-17
2022/09/11 05:53:02;;;;;;;1.60;0.80;;;22.70;63.50;;;;;;5001157;28;20041;-18
2022/09/11 05:55:27;;;;;;;1.08;0.98;;;22.70;63.70;;;;;;4998123;28;20107;-17
2022/09/11 05:57:53;;;;;;;0.80;0.80;;;22.70;63.60;;;;;;5000058;28;20042;-17
2022/09/11 06:00:19;;;;;;;0.90;0.90;;;22.70;63.20;;;;;;4996462;28;20137;-17
2022/09/11 06:02:45;;;;;;;0.90;0.90;;;22.80;63.60;;;;;;4998365;28;20600;-18
2022/09/11 06:05:11;;;;;;;0.80;0.80;;;22.70;63.40;;;;;;5003427;28;20050;-17
2022/09/11 06:07:36;;;;;;;0.70;0.70;;;22.70;63.60;;;;;;5004759;28;20038;-18
2022/09/11 06:10:02;;;;;;;0.77;0.70;;;22.70;63.50;;;;;;4999783;28;20440;-18
2022/09/11 06:12:27;;;;;;;0.63;0.63;;;22.70;63.80;;;;;;5000218;28;20149;-17
2022/09/11 06:14:53;;;;;;;0.70;0.70;;;22.70;63.50;;;;;;5000778;28;20042;-18
2022/09/11 06:17:19;;;;;;;0.90;0.90;;;22.70;63.80;;;;;;4997996;28;20477;-18
2022/09/11 06:19:46;;;;;;;0.90;0.90;;;22.70;63.70;;;;;;4998942;28;20067;-17
2022/09/11 06:22:11;;;;;;;0.88;0.80;;;22.70;63.70;;;;;;4993736;28;20096;-26
2022/09/11 06:24:37;;;;;;;1.10;0.85;;;22.70;64.00;;;;;;4991879;28;20091;-17
2022/09/11 06:27:03;;;;;;;0.75;0.75;;;22.70;63.80;;;;;;4994049;28;20065;-17
2022/09/11 06:29:31;;;;;;;0.98;0.70;;;22.70;63.70;;;;;;4993916;28;20055;-23
2022/09/11 06:31:56;;;;;;;0.60;0.60;;;22.70;63.90;;;;;;4994312;28;20124;-18
2022/09/11 06:34:22;;;;;;;0.77;0.77;;;22.70;63.80;;;;;;4994086;28;20126;-17
2022/09/11 06:36:47;;;;;;;0.50;0.50;;;22.70;63.70;;;;;;4996833;28;20046;-22
2022/09/11 06:39:13;;;;;;;0.75;0.70;;;22.70;63.90;;;;;;4996209;28;20633;-18
2022/09/11 06:41:38;;;;;;;0.80;0.80;;;22.70;63.70;;;;;;4995917;28;20416;-17
2022/09/11 06:44:04;;;;;;;0.90;0.90;;;22.70;63.60;;;;;;4996091;28;20103;-18
2022/09/11 06:46:30;;;;;;;0.63;0.63;;;22.70;63.80;;;;;;4996551;28;20046;-18
2022/09/11 06:48:56;;;;;;;0.80;0.80;;;22.70;64.00;;;;;;4997036;28;20042;-18
2022/09/11 06:51:22;;;;;;;0.80;0.80;;;22.70;64.00;;;;;;4991008;28;20061;-17
2022/09/11 06:53:51;;;;;;;1.55;0.70;;;22.60;64.00;;;;;;4994363;28;20992;-18
2022/09/11 06:56:17;;;;;;;0.95;0.80;;;22.70;63.90;;;;;;4996511;28;20125;-17
2022/09/11 06:58:44;;;;;;;0.77;0.70;;;22.70;63.80;;;;;;4988771;28;21700;-21
2022/09/11 07:01:13;;;;;;;0.73;0.73;;;22.70;64.00;;;;;;4996709;28;20042;-17
2022/09/11 07:03:44;;;;;;;0.75;0.75;;;22.70;64.00;;;;;;4995538;28;20720;-17
2022/09/11 07:06:10;;;;;;;0.70;0.70;;;22.70;64.00;;;;;;4997739;28;20077;-17
2022/09/11 07:08:35;;;;;;;0.73;0.73;;;22.70;63.90;;;;;;4994585;28;20053;-18
2022/09/11 07:11:03;;;;;;;0.60;0.60;;;22.70;63.90;;;;;;5000495;28;20565;-17
2022/09/11 07:13:30;;;;;;;0.60;0.60;;;22.70;63.90;;;;;;5005753;28;20034;-17
2022/09/11 07:15:59;;;;;;;0.70;0.60;;;22.70;63.90;;;;;;5005745;28;20042;-17
2022/09/11 07:18:25;;;;;;;0.60;0.52;;;22.70;63.60;;;;;;5006018;28;21047;-17
2022/09/11 07:20:50;;;;;;;0.80;0.80;;;22.70;64.10;;;;;;5005767;28;20046;-17
2022/09/11 07:23:16;;;;;;;0.60;0.60;;;22.70;64.30;;;;;;4992521;28;20045;-17
2022/09/11 07:25:42;;;;;;;0.82;0.73;;;22.70;64.80;;;;;;4996237;28;20106;-17
2022/09/11 07:28:08;;;;;;;0.82;0.80;;;22.70;64.40;;;;;;4995430;28;20527;-21
2022/09/11 07:30:33;;;;;;;1.00;0.70;;;22.70;64.30;;;;;;4996813;28;20042;-20
2022/09/11 07:32:59;;;;;;;0.60;0.60;;;22.70;64.50;;;;;;4999915;28;20057;-17
2022/09/11 07:35:25;;;;;;;0.80;0.73;;;22.70;64.60;;;;;;4998372;28;20547;-17
2022/09/11 07:37:51;;;;;;;3.53;1.13;;;22.70;65.40;;;;;;4995392;28;20383;-17
2022/09/11 07:40:17;;;;;;;1.40;1.15;;;22.70;66.10;;;;;;4997048;28;20085;-17
2022/09/11 07:42:43;;;;;;;1.10;1.10;;;22.70;66.20;;;;;;4997188;28;20058;-17
2022/09/11 07:45:09;;;;;;;0.90;0.90;;;22.70;66.80;;;;;;4996948;28;20052;-18
2022/09/11 07:47:35;;;;;;;1.08;0.98;;;22.70;66.10;;;;;;4994957;28;20451;-17
2022/09/11 07:50:01;;;;;;;0.90;0.90;;;22.80;66.10;;;;;;4651407;28;10000035;-17
2022/09/11 07:52:26;;;;;;;1.00;1.00;;;22.80;65.20;;;;;;4993805;28;20050;-17
2022/09/11 07:54:52;;;;;;;1.00;0.80;;;22.90;65.30;;;;;;4998621;28;20056;-18
2022/09/11 07:57:18;;;;;;;0.90;0.90;;;23.00;65.50;;;;;;5000585;28;20535;-18
2022/09/11 07:59:45;;;;;;;0.77;0.77;;;23.00;65.40;;;;;;5000988;28;20532;-18
2022/09/11 08:02:10;;;;;;;1.52;1.30;;;22.90;65.50;;;;;;5002268;28;20054;-18
2022/09/11 08:04:36;;;;;;;0.80;0.80;;;23.00;65.50;;;;;;4998438;28;20588;-18
2022/09/11 08:07:02;;;;;;;0.90;0.90;;;23.00;65.10;;;;;;4997236;28;20049;-19
2022/09/11 08:09:28;;;;;;;0.80;0.80;;;22.90;65.30;;;;;;4998007;28;20057;-18
2022/09/11 08:11:57;;;;;;;0.95;0.80;;;22.90;65.30;;;;;;5002886;28;20046;-18
2022/09/11 08:14:23;;;;;;;0.80;0.80;;;22.90;65.70;;;;;;5002134;28;20042;-21
2022/09/11 08:16:49;;;;;;;0.90;0.90;;;22.80;65.50;;;;;;4998842;28;20053;-18
2022/09/11 08:19:17;;;;;;;0.70;0.70;;;22.80;65.60;;;;;;5001075;28;20416;-24
2022/09/11 08:21:43;;;;;;;1.08;0.70;;;22.80;65.60;;;;;;5000620;28;20075;-19
2022/09/11 08:24:11;;;;;;;1.35;0.90;;;22.80;65.50;;;;;;4999786;28;20050;-22
2022/09/11 08:26:37;;;;;;;0.82;0.82;;;22.80;65.30;;;;;;4999551;28;20465;-18
2022/09/11 08:29:02;;;;;;;0.75;0.75;;;22.90;65.50;;;;;;5002390;28;20103;-19
2022/09/11 08:31:28;;;;;;;0.80;0.70;;;22.90;65.30;;;;;;4997733;28;20098;-19
2022/09/11 08:33:54;;;;;;;0.65;0.55;;;22.80;65.10;;;;;;4999790;28;20416;-18
2022/09/11 08:36:20;;;;;;;1.33;0.50;;;22.80;65.00;;;;;;4998186;28;20528;-18
2022/09/11 08:38:45;;;;;;;0.65;0.65;;;22.90;65.10;;;;;;5000373;28;20034;-19
2022/09/11 08:41:49;;;;;;;0.80;0.50;;;22.90;64.90;;;;;;5002995;28;20457;-18
2022/09/11 08:44:25;;;;;;;0.70;0.70;;;22.90;64.80;;;;;;4998640;28;20643;-19
2022/09/11 08:46:54;;;;;;;0.60;0.50;;;23.00;64.40;;;;;;4997130;28;20065;-18
2022/09/11 08:49:27;;;;;;;0.50;0.50;;;23.00;64.70;;;;;;4981131;28;20064;-18
2022/09/11 08:51:56;;;;;;;0.65;0.50;;;23.00;64.80;;;;;;4999280;28;20146;-18
2022/09/11 08:54:26;;;;;;;0.40;0.40;;;22.90;65.00;;;;;;4993311;28;20042;-20
2022/09/11 08:56:57;;;;;;;1.33;0.50;;;22.90;64.80;;;;;;4994317;28;20046;-18
2022/09/11 08:59:22;;;;;;;0.40;0.30;;;22.90;64.60;;;;;;5015562;28;20069;-19
2022/09/11 09:02:00;;;;;;;2.53;0.45;;;22.90;64.70;;;;;;4995523;28;20073;-27
2022/09/11 09:05:07;;;;;;;0.55;0.55;;;22.80;64.80;;;;;;4995553;28;20060;-19
2022/09/11 09:07:37;;;;;;;0.93;0.50;;;22.80;64.80;;;;;;5018941;28;20075;-18
2022/09/11 09:10:02;;;;;;;0.52;0.40;;;22.80;64.80;;;;;;5024707;28;20065;-18
2022/09/11 09:12:48;;;;;;;0.38;0.30;;;22.80;64.80;;;;;;5018747;28;20133;-18
2022/09/11 09:15:31;;;;;;;0.32;0.32;;;22.80;64.80;;;;;;5000791;28;20063;-18
2022/09/11 09:18:46;;;;;;;0.50;0.30;;;22.80;64.90;;;;;;5020562;28;20048;-17
2022/09/11 09:21:13;;;;;;;0.70;0.40;;;22.90;64.50;;;;;;4607045;28;10000140;-18
2022/09/11 09:23:44;;;;;;;0.90;0.43;;;23.00;64.00;;;;;;4954802;28;20294;-27
2022/09/11 09:26:16;;;;;;;0.80;0.30;;;23.00;64.80;;;;;;4954772;28;20042;-17
2022/09/11 09:28:53;;;;;;;0.75;0.15;;;23.00;64.00;;;;;;4943606;28;20060;-18
2022/09/11 09:31:20;;;;;;;1.10;0.40;;;23.10;63.90;;;;;;4957580;28;20065;-18
2022/09/11 09:33:55;;;;;;;1.30;0.30;;;23.00;64.10;;;;;;4955918;28;20090;-18
2022/09/11 09:36:21;;;;;;;1.65;0.47;;;23.00;63.70;;;;;;4918409;28;20030;-18
2022/09/11 09:38:47;;;;;;;1.20;0.40;;;23.10;63.90;;;;;;4959221;28;20043;-18
2022/09/11 09:42:10;;;;;;;0.77;0.30;;;23.10;64.40;;;;;;4955483;28;20050;-18
2022/09/11 09:45:00;;;;;;;0.43;0.40;;;23.10;63.90;;;;;;4873219;28;20337;-18
2022/09/11 09:47:25;;;;;;;0.38;0.38;;;23.10;63.80;;;;;;4864312;28;20532;-18
2022/09/11 09:49:51;;;;;;;1.35;1.25;;;23.10;63.50;;;;;;4859921;28;20061;-18
2022/09/11 09:52:19;;;;;;;2.85;2.38;;;23.20;63.30;;;;;;4862776;28;20071;-17
2022/09/11 09:54:59;;;;;;;6.75;5.70;;;23.20;63.20;;;;;;4862082;28;20099;-18
2022/09/11 09:57:29;;;;;;;11.63;7.70;;;23.20;63.10;;;;;;4879697;28;20772;-23
2022/09/11 10:00:07;;;;;;;14.18;9.80;;;23.20;63.00;;;;;;4919673;28;20553;-18
2022/09/11 10:02:39;;;;;;;14.10;10.50;;;23.20;63.00;;;;;;4920445;28;20048;-18
2022/09/11 10:05:29;;;;;;;11.85;9.00;;;23.20;62.80;;;;;;4901633;28;20040;-18
2022/09/11 10:08:03;;;;;;;7.47;6.68;;;23.20;62.70;;;;;;4900240;28;20657;-18
2022/09/11 10:10:36;;;;;;;9.68;7.68;;;23.20;62.60;;;;;;4908266;28;20102;-18
2022/09/11 10:13:23;;;;;;;15.63;11.35;;;23.20;62.70;;;;;;4908685;28;20039;-18
2022/09/11 10:15:49;;;;;;;19.73;15.63;;;23.30;62.90;;;;;;4905843;28;20148;-18
2022/09/11 10:18:34;;;;;;;27.83;22.05;;;23.30;62.90;;;;;;4958478;28;20499;-18
2022/09/11 10:21:32;;;;;;;33.65;24.77;;;23.30;62.90;;;;;;4998210;28;20083;-18
2022/09/11 10:24:16;;;;;;;35.63;27.70;;;23.30;62.90;;;;;;4998047;28;20038;-17
2022/09/11 10:26:48;;;;;;;36.65;28.67;;;23.30;62.90;;;;;;4992266;28;20057;-17
2022/09/11 10:29:23;;;;;;;36.00;27.67;;;23.30;63.00;;;;;;5000897;28;20073;-34
2022/09/11 10:31:53;;;;;;;35.05;26.25;;;23.30;63.00;;;;;;4995985;28;20038;-17
2022/09/11 10:34:19;;;;;;;29.15;23.25;;;23.30;63.00;;;;;;5004095;28;20032;-17
2022/09/11 10:37:01;;;;;;;28.17;19.80;;;23.30;62.90;;;;;;4996488;28;20045;-17
2022/09/11 10:39:30;;;;;;;20.55;15.93;;;23.40;63.10;;;;;;5000636;28;20033;-17
2022/09/11 10:41:59;;;;;;;15.45;12.93;;;23.40;63.00;;;;;;4997090;28;20046;-22
2022/09/11 10:44:25;;;;;;;12.93;10.10;;;23.40;62.90;;;;;;4976307;28;20034;-18
2022/09/11 10:47:16;;;;;;;11.95;9.15;;;23.40;62.80;;;;;;5001569;28;20505;-17
2022/09/11 10:49:42;;;;;;;8.13;7.30;;;23.40;62.80;;;;;;4995068;28;20126;-17
2022/09/11 10:52:08;;;;;;;6.65;6.13;;;23.40;62.70;;;;;;4998114;28;20520;-18
2022/09/11 10:54:43;;;;;;;8.00;5.22;;;23.40;62.60;;;;;;4996525;28;20045;-17
2022/09/11 10:57:26;;;;;;;4.57;4.13;;;23.50;62.50;;;;;;4995779;28;20504;-22
2022/09/11 10:59:56;;;;;;;4.13;3.83;;;23.50;62.40;;;;;;4990163;28;20137;-17
2022/09/11 11:02:33;;;;;;;2.88;2.67;;;23.50;62.10;;;;;;4990407;28;20812;-17
2022/09/11 11:05:18;;;;;;;2.55;2.42;;;23.50;62.10;;;;;;4996967;28;20532;-17
2022/09/11 11:07:53;;;;;;;2.10;1.90;;;23.50;62.10;;;;;;4999586;28;20500;-17
2022/09/11 11:11:13;;;;;;;1.70;1.60;;;23.50;62.10;;;;;;4993959;28;20051;-27
2022/09/11 11:14:06;;;;;;;1.88;1.20;;;23.50;62.10;;;;;;5036730;28;20033;-18
2022/09/11 11:16:41;;;;;;;0.95;0.95;;;23.60;62.10;;;;;;5036693;28;20481;-18
2022/09/11 11:19:21;;;;;;;1.50;0.70;;;23.60;62.10;;;;;;5036210;28;20119;-18
2022/09/11 11:21:58;;;;;;;0.80;0.60;;;23.50;62.00;;;;;;5035974;28;20077;-17
2022/09/11 11:24:38;;;;;;;0.88;0.70;;;23.50;62.00;;;;;;5038099;28;20033;-17
2022/09/11 11:27:31;;;;;;;0.50;0.50;;;23.60;62.20;;;;;;5039729;28;20389;-18
2022/09/11 11:30:16;;;;;;;0.65;0.57;;;23.60;62.20;;;;;;5042639;28;20037;-17
2022/09/11 11:32:57;;;;;;;0.30;0.30;;;23.60;62.20;;;;;;5026553;28;20056;-18
2022/09/11 11:35:50;;;;;;;0.45;0.30;;;23.60;62.20;;;;;;5027942;28;20585;-17
2022/09/11 11:38:34;;;;;;;0.45;0.30;;;23.60;62.20;;;;;;5040806;28;20504;-17
2022/09/11 11:41:05;;;;;;;;;;;23.60;62.30;;;;;;5038941;28;20621;-18
2022/09/11 11:43:33;;;;;;;0.30;0.20;;;23.60;62.30;;;;;;5039516;28;20453;-17
2022/09/11 11:46:14;;;;;;;0.20;0.20;;;23.70;62.40;;;;;;5040312;28;20060;-17
2022/09/11 11:48:49;;;;;;;0.30;0.30;;;23.70;62.30;;;;;;4997298;28;21165;-17
2022/09/11 11:51:22;;;;;;;0.65;0.30;;;23.70;62.30;;;;;;5003205;28;20106;-17
2022/09/11 11:53:54;;;;;;;0.32;0.10;;;23.70;62.20;;;;;;4994353;28;20042;-17
2022/09/11 11:56:39;;;;;;;0.20;0.20;;;23.70;62.20;;;;;;4999207;28;20046;-17
2022/09/11 11:59:30;;;;;;;0.10;0.10;;;23.70;62.30;;;;;;4978407;28;20053;-17
2022/09/11 12:02:01;;;;;;;1.27;0.22;;;23.80;62.50;;;;;;5000041;28;20030;-18
2022/09/11 12:04:45;;;;;;;0.50;0.20;;;23.80;62.50;;;;;;4997738;28;20474;-18
2022/09/11 12:07:21;;;;;;;0.70;0.45;;;23.80;62.40;;;;;;5008389;28;20050;-18
2022/09/11 12:09:51;;;;;;;0.22;0.22;;;23.80;62.30;;;;;;5000407;28;20050;-22
2022/09/11 12:12:16;;;;;;;0.30;0.20;;;23.80;62.30;;;;;;5002194;28;20453;-17
2022/09/11 12:14:55;;;;;;;0.25;0.25;;;23.80;62.10;;;;;;4995952;28;20527;-18
2022/09/11 12:17:29;;;;;;;0.38;0.22;;;23.80;61.80;;;;;;5015032;27;20117;-27
2022/09/11 12:20:09;;;;;;;0.35;0.22;;;23.90;61.90;;;;;;4998551;28;20174;-17
2022/09/11 12:22:40;;;;;;;0.38;0.30;;;23.90;61.90;;;;;;4995447;28;20050;-18
2022/09/11 12:25:17;;;;;;;0.38;0.30;;;23.90;61.90;;;;;;5001599;28;20045;-17
2022/09/11 12:27:43;;;;;;;0.25;0.15;;;23.90;62.10;;;;;;4997112;28;20042;-18
2022/09/11 12:30:15;;;;;;;0.15;0.15;;;23.90;62.20;;;;;;4996067;28;20046;-17
2022/09/11 12:33:00;;;;;;;0.22;0.17;;;23.90;62.30;;;;;;5001692;28;20049;-23
2022/09/11 12:35:47;;;;;;;0.40;0.40;;;23.90;62.80;;;;;;4996760;28;20073;-18
2022/09/11 12:38:25;;;;;;;0.10;0.10;;;24.00;63.00;;;;;;4998911;28;20057;-18
2022/09/11 12:41:00;;;;;;;0.20;0.20;;;24.00;63.30;;;;;;4995109;28;20144;-19
2022/09/11 12:43:26;;;;;;;0.40;0.20;;;24.00;63.30;;;;;;4999370;28;20524;-18
2022/09/11 12:45:51;;;;;;;3.47;0.80;;;24.00;63.60;;;;;;4992949;28;20049;-18
2022/09/11 12:48:22;;;;;;;0.50;0.30;;;24.00;63.80;;;;;;5004327;28;20061;-18
2022/09/11 12:50:57;;;;;;;0.28;0.20;;;24.00;63.80;;;;;;5000373;28;20058;-18
2022/09/11 12:53:28;;;;;;;0.65;0.30;;;24.00;64.50;;;;;;4998762;28;20140;-18
2022/09/11 12:55:56;;;;;;;0.20;0.20;;;24.00;63.60;;;;;;5000145;28;20046;-18
2022/09/11 12:58:32;;;;;;;0.40;0.15;;;24.00;64.20;;;;;;5004354;28;20068;-18
2022/09/11 13:01:04;;;;;;;0.20;0.20;;;24.10;63.30;;;;;;4998079;28;20045;-25
2022/09/11 13:03:30;;;;;;;0.40;0.20;;;24.10;63.20;;;;;;5003214;28;20054;-18
2022/09/11 13:06:00;;;;;;;0.55;0.20;;;24.10;63.00;;;;;;4991474;28;20516;-19